Time;durP1;ratioP1;P1;durP2;ratioP2;P2;SDS_P1;SDS_P2;PMS_P1;PMS_P2;Temp;Humidity;BMP_temperature;BMP_pressure;BME280_temperature;BME280_humidity;BME280_pressure;Samples;Min_cycle;Max_cycle;Signal;HPM_P1;HPM_P2
2022/01/05 00:01:06;;;;;;;1.30;1.10;;;;;;;9.57;74.13;95934.00;6250418;28;20223;-73
2022/01/05 00:04:08;;;;;;;1.67;1.23;;;;;;;9.46;74.48;95937.75;6231200;28;20230;-73
2022/01/05 00:07:11;;;;;;;1.67;1.20;;;;;;;9.39;74.19;95941.97;6228839;28;20234;-72
2022/01/05 00:10:14;;;;;;;1.50;1.33;;;;;;;9.33;75.07;95945.25;6254334;28;20251;-72
2022/01/05 00:13:15;;;;;;;1.63;1.00;;;;;;;9.34;74.93;95944.28;6254581;28;20251;-73
2022/01/05 00:16:17;;;;;;;1.27;0.83;;;;;;;9.41;74.51;95940.00;6244065;28;20236;-73
2022/01/05 00:19:19;;;;;;;1.60;0.90;;;;;;;9.63;74.29;95934.16;6244731;28;20245;-75
2022/01/05 00:22:22;;;;;;;1.03;1.00;;;;;;;9.79;73.58;95922.84;6253593;28;20234;-72
2022/01/05 00:25:23;;;;;;;1.60;0.80;;;;;;;9.89;73.22;95910.34;6253797;28;20230;-72
2022/01/05 00:28:25;;;;;;;1.63;0.90;;;;;;;9.85;72.93;95903.78;6254218;28;20227;-73
2022/01/05 00:31:27;;;;;;;1.23;0.73;;;;;;;9.76;72.89;95899.47;6253647;28;20233;-72
2022/01/05 00:34:29;;;;;;;1.33;0.90;;;;;;;9.65;73.98;95897.13;6243233;28;20232;-72
2022/01/05 00:37:31;;;;;;;2.40;1.23;;;;;;;9.68;72.94;95912.63;6229506;28;20666;-73
2022/01/05 00:40:33;;;;;;;0.90;0.70;;;;;;;9.81;72.53;95915.59;6244844;28;20714;-72
2022/01/05 00:43:35;;;;;;;1.10;0.90;;;;;;;9.86;72.02;95918.59;6253503;28;20714;-72
2022/01/05 00:46:37;;;;;;;1.33;0.80;;;;;;;9.91;72.00;95926.00;6250411;28;20230;-73
2022/01/05 00:49:39;;;;;;;1.00;0.83;;;;;;;9.87;72.21;95945.78;6229743;28;20232;-73
2022/01/05 00:52:42;;;;;;;2.50;1.10;;;;;;;9.86;72.32;95944.94;6232453;28;20357;-73
2022/01/05 00:55:44;;;;;;;1.33;0.80;;;;;;;9.96;71.78;95942.16;6251972;28;20280;-73
2022/01/05 00:58:46;;;;;;;1.43;0.80;;;;;;;9.97;71.37;95954.34;6254119;28;20230;-73
2022/01/05 01:01:47;;;;;;;0.83;0.67;;;;;;;9.91;71.91;95965.53;6253147;28;20828;-73
2022/01/05 01:04:50;;;;;;;0.93;0.70;;;;;;;9.84;71.57;95960.09;6254257;28;20264;-73
2022/01/05 01:07:52;;;;;;;0.63;0.60;;;;;;;9.82;71.90;95950.69;6251837;28;20235;-72
2022/01/05 01:10:54;;;;;;;0.97;0.80;;;;;;;9.79;72.47;95951.81;6253222;28;20226;-73
2022/01/05 01:13:56;;;;;;;1.00;0.70;;;;;;;9.78;71.74;95950.16;6234495;28;20243;-73
2022/01/05 01:16:58;;;;;;;1.20;0.70;;;;;;;9.80;71.00;95953.47;6241513;28;20737;-73
2022/01/05 01:20:00;;;;;;;0.83;0.50;;;;;;;9.80;71.12;95950.00;6253659;28;20231;-72
2022/01/05 01:23:01;;;;;;;0.60;0.57;;;;;;;9.73;71.29;95951.66;6252822;28;20729;-72
2022/01/05 01:26:04;;;;;;;0.70;0.70;;;;;;;9.76;71.24;95949.53;6253037;28;20224;-73
2022/01/05 01:29:05;;;;;;;0.80;0.63;;;;;;;9.67;71.26;95937.31;6252780;28;20274;-72
2022/01/05 01:32:08;;;;;;;1.17;0.83;;;;;;;9.56;72.79;95937.63;6253255;28;20230;-72
2022/01/05 01:35:10;;;;;;;0.87;0.63;;;;;;;9.47;73.14;95939.41;6237789;28;20228;-74
2022/01/05 01:38:12;;;;;;;0.50;0.50;;;;;;;9.39;73.16;95936.72;6236384;28;20223;-73
2022/01/05 01:41:15;;;;;;;0.50;0.50;;;;;;;9.34;73.24;95944.28;6252962;28;20241;-72
2022/01/05 01:44:17;;;;;;;0.97;0.50;;;;;;;9.29;73.38;95946.53;6252594;28;20229;-73
2022/01/05 01:47:19;;;;;;;2.23;0.70;;;;;;;9.21;74.05;95955.22;6234541;28;20255;-72
2022/01/05 01:50:21;;;;;;;0.80;0.47;;;;;;;9.16;73.76;95959.31;6228121;28;20232;-73
2022/01/05 01:53:23;;;;;;;0.70;0.47;;;;;;;9.10;74.73;95963.38;6245914;28;20331;-74
2022/01/05 01:56:26;;;;;;;1.40;0.77;;;;;;;9.01;74.57;95955.59;6251689;28;20227;-72
2022/01/05 01:59:28;;;;;;;1.03;0.50;;;;;;;8.96;75.13;95952.63;6252875;28;20223;-72
2022/01/05 02:02:30;;;;;;;0.80;0.50;;;;;;;8.90;75.11;95951.44;6254243;28;20695;-73
2022/01/05 02:05:32;;;;;;;1.07;0.60;;;;;;;8.84;75.68;95952.88;6252273;28;20222;-72
2022/01/05 02:08:34;;;;;;;0.40;0.40;;;;;;;8.77;75.76;95954.50;6251846;28;20234;-72
2022/01/05 02:11:39;;;;;;;0.50;0.50;;;;;;;8.75;75.94;95947.72;6253123;28;20231;-72
2022/01/05 02:14:41;;;;;;;2.63;0.60;;;;;;;8.70;75.82;95950.81;6252174;28;20322;-73
2022/01/05 02:18:10;;;;;;;0.40;0.40;;;;;;;8.68;76.16;95941.44;6253037;28;20238;-73
2022/01/05 02:21:14;;;;;;;1.00;0.50;;;;;;;8.65;76.11;95937.31;6250474;28;20237;-72
2022/01/05 02:24:16;;;;;;;0.50;0.50;;;;;;;8.63;75.95;95931.38;6252360;28;20616;-72
2022/01/05 02:27:18;;;;;;;0.40;0.40;;;;;;;8.61;76.65;95930.69;6252228;28;20218;-72
2022/01/05 02:30:26;;;;;;;1.70;0.80;;;;;;;8.60;76.73;95939.56;6249823;28;20239;-72
2022/01/05 02:33:28;;;;;;;0.97;0.60;;;;;;;8.56;76.82;95940.88;6250729;28;20219;-72
2022/01/05 02:36:31;;;;;;;1.23;0.50;;;;;;;8.55;76.74;95931.31;6227964;28;20234;-72
2022/01/05 02:39:33;;;;;;;0.87;0.50;;;;;;;8.54;76.90;95924.41;6230990;28;20242;-72
2022/01/05 02:42:35;;;;;;;0.53;0.40;;;;;;;8.49;76.67;95921.41;6252715;28;20226;-73
2022/01/05 02:45:37;;;;;;;0.97;0.67;;;;;;;8.46;77.55;95929.63;6249485;28;20382;-72
2022/01/05 02:48:40;;;;;;;0.50;0.50;;;;;;;8.41;77.89;95930.06;6237372;28;20402;-72
2022/01/05 02:51:42;;;;;;;0.73;0.73;;;;;;;8.40;77.66;95933.66;6232262;28;20239;-72
2022/01/05 02:54:44;;;;;;;0.63;0.60;;;;;;;8.40;77.91;95936.28;6245181;28;20237;-72
2022/01/05 02:57:46;;;;;;;2.40;0.83;;;;;;;8.37;78.11;95935.78;6255981;28;20234;-72
2022/01/05 03:00:48;;;;;;;2.43;1.00;;;;;;;8.33;78.65;95930.00;6257023;28;20238;-72
2022/01/05 03:03:50;;;;;;;1.10;0.80;;;;;;;8.34;78.62;95921.16;6257381;28;20265;-72
2022/01/05 03:06:53;;;;;;;0.60;0.60;;;;;;;8.33;79.22;95926.53;6256435;28;20287;-72
2022/01/05 03:09:55;;;;;;;1.23;0.90;;;;;;;8.33;78.60;95942.31;6214986;28;20240;-72
2022/01/05 03:12:57;;;;;;;0.70;0.70;;;;;;;8.31;78.78;95947.72;6252041;28;20241;-72
2022/01/05 03:15:59;;;;;;;0.87;0.87;;;;;;;8.45;78.18;95935.84;6248290;28;20230;-72
2022/01/05 03:19:01;;;;;;;2.93;0.90;;;;;;;8.54;77.80;95934.94;6245922;28;20249;-72
2022/01/05 03:22:03;;;;;;;2.70;0.90;;;;;;;8.54;77.13;95942.00;6254806;28;20235;-72
2022/01/05 03:25:07;;;;;;;1.07;0.70;;;;;;;8.55;77.35;95939.22;6256173;28;20234;-74
2022/01/05 03:28:11;;;;;;;0.80;0.60;;;;;;;8.61;76.02;95943.84;6255145;28;20242;-72
2022/01/05 03:31:13;;;;;;;0.43;0.43;;;;;;;8.61;75.46;95943.00;6255770;28;20251;-72
2022/01/05 03:34:18;;;;;;;0.60;0.50;;;;;;;8.64;74.05;95961.13;6247328;28;20381;-72
2022/01/05 03:37:20;;;;;;;0.67;0.67;;;;;;;8.63;74.25;95975.25;6231872;28;20228;-72
2022/01/05 03:40:23;;;;;;;0.40;0.40;;;;;;;8.63;73.67;95970.81;6252983;28;20235;-73
2022/01/05 03:43:25;;;;;;;0.50;0.50;;;;;;;8.59;73.68;95968.63;6256311;28;20241;-72
2022/01/05 03:46:27;;;;;;;0.50;0.50;;;;;;;8.53;73.73;95972.72;6244050;28;20594;-73
2022/01/05 03:49:29;;;;;;;0.57;0.40;;;;;;;8.47;73.25;95968.06;6229399;28;20236;-72
2022/01/05 03:52:31;;;;;;;0.83;0.43;;;;;;;8.45;73.26;95975.28;6238341;28;20234;-73
2022/01/05 03:55:35;;;;;;;0.30;0.30;;;;;;;8.40;73.55;95969.63;6253885;28;20227;-72
2022/01/05 03:58:37;;;;;;;0.40;0.40;;;;;;;8.35;73.17;95966.66;6255399;28;20241;-72
2022/01/05 04:01:39;;;;;;;0.30;0.30;;;;;;;8.29;73.72;95975.91;6253446;28;20227;-73
2022/01/05 04:04:41;;;;;;;0.43;0.43;;;;;;;8.27;72.78;95969.19;6255554;28;20231;-71
2022/01/05 04:07:42;;;;;;;0.50;0.30;;;;;;;8.25;72.31;95981.63;6253889;28;20227;-73
2022/01/05 04:10:44;;;;;;;0.43;0.43;;;;;;;8.24;71.96;95987.88;6254678;28;20704;-73
2022/01/05 04:13:46;;;;;;;0.50;0.20;;;;;;;8.21;71.89;95989.00;6256623;28;20246;-72
2022/01/05 04:16:48;;;;;;;0.30;0.30;;;;;;;8.19;71.77;95977.78;6247991;28;20282;-73
2022/01/05 04:19:51;;;;;;;0.40;0.40;;;;;;;8.17;71.58;95990.28;6254340;28;20248;-73
2022/01/05 04:22:53;;;;;;;0.97;0.50;;;;;;;8.13;71.51;95988.91;6253820;28;20231;-71
2022/01/05 04:25:55;;;;;;;0.70;0.30;;;;;;;8.11;71.00;95990.84;6254310;28;20237;-73
2022/01/05 04:28:56;;;;;;;1.00;0.40;;;;;;;8.10;71.29;95997.09;6254058;28;20709;-73
2022/01/05 04:32:00;;;;;;;0.40;0.40;;;;;;;8.07;71.33;96002.66;6255208;28;20235;-73
2022/01/05 04:35:03;;;;;;;0.60;0.40;;;;;;;8.05;71.68;95997.56;6238153;28;20708;-73
2022/01/05 04:38:25;;;;;;;0.93;0.60;;;;;;;8.01;71.99;96011.94;6229797;28;20239;-72
2022/01/05 04:41:27;;;;;;;0.83;0.70;;;;;;;8.01;72.01;96005.88;6241038;28;20224;-73
2022/01/05 04:44:29;;;;;;;0.40;0.40;;;;;;;8.00;71.22;95991.06;6254532;28;20332;-73
2022/01/05 04:47:31;;;;;;;0.53;0.50;;;;;;;7.98;71.58;95988.63;6233852;28;20733;-72
2022/01/05 04:50:33;;;;;;;0.50;0.50;;;;;;;8.00;71.35;95988.44;6228087;28;21007;-72
2022/01/05 04:53:35;;;;;;;0.50;0.50;;;;;;;7.99;71.12;96002.56;6228229;28;20245;-73
2022/01/05 04:56:37;;;;;;;0.40;0.40;;;;;;;7.95;71.37;96001.22;6253259;28;20229;-72
2022/01/05 04:59:39;;;;;;;0.57;0.57;;;;;;;7.90;72.05;96008.69;6254609;28;20230;-73
2022/01/05 05:02:41;;;;;;;0.70;0.60;;;;;;;7.89;71.62;96001.78;6254506;28;20309;-72
2022/01/05 05:05:43;;;;;;;0.33;0.33;;;;;;;7.89;71.86;96000.00;6253741;28;20227;-73
2022/01/05 05:08:45;;;;;;;0.37;0.37;;;;;;;7.86;72.01;96002.09;6252466;28;20238;-72
2022/01/05 05:11:47;;;;;;;0.47;0.47;;;;;;;7.81;72.06;95999.91;6252961;28;20726;-73
2022/01/05 05:14:50;;;;;;;0.50;0.50;;;;;;;7.80;71.83;96006.13;6254106;28;20220;-73
2022/01/05 05:17:52;;;;;;;0.63;0.40;;;;;;;7.75;72.29;96008.38;6230317;28;20237;-73
2022/01/05 05:20:54;;;;;;;0.37;0.37;;;;;;;7.72;72.05;96020.00;6253509;28;20712;-72
2022/01/05 05:23:56;;;;;;;0.40;0.40;;;;;;;7.69;72.84;96040.47;6253643;28;20227;-72
2022/01/05 05:26:58;;;;;;;0.47;0.40;;;;;;;7.64;72.22;96056.66;6251341;28;20740;-72
2022/01/05 05:29:59;;;;;;;0.60;0.40;;;;;;;7.63;72.44;96059.44;6254061;28;20237;-73
2022/01/05 05:33:05;;;;;;;0.30;0.30;;;;;;;7.59;71.89;96068.56;6251277;28;20590;-72
2022/01/05 05:36:07;;;;;;;0.20;0.20;;;;;;;7.57;72.57;96081.84;6229288;28;20610;-73
2022/01/05 05:39:09;;;;;;;0.33;0.30;;;;;;;7.54;72.19;96078.66;6234327;28;20662;-72
2022/01/05 05:42:11;;;;;;;0.30;0.30;;;;;;;7.51;71.85;96081.56;6252272;28;20215;-72
2022/01/05 05:45:13;;;;;;;1.27;0.27;;;;;;;7.50;71.76;96085.16;6249653;28;20748;-72
2022/01/05 05:48:15;;;;;;;0.40;0.40;;;;;;;7.47;71.73;96090.72;6237974;28;20358;-72
2022/01/05 05:51:17;;;;;;;0.23;0.20;;;;;;;7.44;71.40;96101.50;6228096;28;20731;-72
2022/01/05 05:54:18;;;;;;;0.30;0.30;;;;;;;7.41;71.36;96105.22;6243724;28;20686;-72
2022/01/05 05:57:20;;;;;;;0.20;0.20;;;;;;;7.38;72.09;96103.75;6252355;28;20234;-73
2022/01/05 06:00:22;;;;;;;0.20;0.20;;;;;;;7.34;72.13;96114.66;6252901;28;20226;-72
2022/01/05 06:03:24;;;;;;;0.30;0.30;;;;;;;7.31;72.27;96128.88;6252227;28;20632;-73
2022/01/05 06:06:27;;;;;;;0.30;0.30;;;;;;;7.29;72.33;96125.56;6253410;28;20230;-72
2022/01/05 06:09:29;;;;;;;0.33;0.33;;;;;;;7.28;72.71;96128.34;6252024;28;20229;-72
2022/01/05 06:12:31;;;;;;;0.43;0.27;;;;;;;7.22;73.00;96137.59;6252934;28;20225;-72
2022/01/05 06:15:33;;;;;;;0.30;0.30;;;;;;;7.12;73.36;96130.69;6246851;28;20759;-73
2022/01/05 06:18:35;;;;;;;0.83;0.30;;;;;;;7.07;73.64;96131.13;6244173;28;20235;-73
2022/01/05 06:21:37;;;;;;;1.10;0.30;;;;;;;6.99;73.97;96134.44;6255403;28;20220;-72
2022/01/05 06:24:40;;;;;;;0.20;0.20;;;;;;;6.94;74.40;96130.56;6256693;28;20220;-72
2022/01/05 06:27:42;;;;;;;0.23;0.20;;;;;;;6.87;74.33;96138.19;6257978;28;20322;-73
2022/01/05 06:30:43;;;;;;;0.23;0.20;;;;;;;6.80;74.57;96131.81;6252555;28;20231;-72
2022/01/05 06:33:45;;;;;;;0.30;0.30;;;;;;;6.70;74.48;96144.09;6231581;28;20225;-72
2022/01/05 06:36:49;;;;;;;0.10;0.10;;;;;;;6.60;74.76;96143.25;6232860;28;20232;-72
2022/01/05 06:39:51;;;;;;;0.37;0.30;;;;;;;6.52;74.33;96146.56;6255957;28;20232;-73
2022/01/05 06:42:54;;;;;;;0.40;0.17;;;;;;;6.47;74.78;96146.16;6257260;28;20644;-71
2022/01/05 06:45:59;;;;;;;0.30;0.20;;;;;;;6.44;74.38;96156.91;6250008;28;20601;-72
2022/01/05 06:49:01;;;;;;;0.30;0.30;;;;;;;6.41;74.71;96175.50;6232412;28;20664;-72
2022/01/05 06:52:04;;;;;;;0.10;0.10;;;;;;;6.39;74.05;96172.19;6239329;28;20341;-72
2022/01/05 06:55:07;;;;;;;0.30;0.00;;;;;;;6.37;74.07;96184.59;6254737;28;20641;-73
2022/01/05 06:58:09;;;;;;;0.00;0.00;;;;;;;6.35;72.13;96178.66;6257646;28;20238;-72
2022/01/05 07:01:12;;;;;;;0.10;0.10;;;;;;;6.34;72.48;96190.09;6257366;28;20229;-72
2022/01/05 07:04:14;;;;;;;0.10;0.10;;;;;;;6.29;71.85;96174.78;6254549;28;20673;-72
2022/01/05 07:07:17;;;;;;;0.20;0.20;;;;;;;6.26;72.17;96169.81;6257111;28;20236;-72
2022/01/05 07:10:19;;;;;;;0.10;0.10;;;;;;;6.22;71.84;96162.34;6256370;28;20239;-73
2022/01/05 07:13:22;;;;;;;0.10;0.10;;;;;;;6.19;71.69;96152.13;6255833;28;20300;-72
2022/01/05 07:16:24;;;;;;;0.10;0.10;;;;;;;6.18;71.53;96146.09;6243746;28;20232;-72
2022/01/05 07:19:27;;;;;;;0.10;0.10;;;;;;;6.14;70.88;96149.94;6237446;28;20241;-72
2022/01/05 07:22:28;;;;;;;0.10;0.10;;;;;;;6.15;71.32;96158.63;6254640;28;20226;-73
2022/01/05 07:25:33;;;;;;;0.10;0.10;;;;;;;6.11;71.06;96144.13;6253827;28;20583;-72
2022/01/05 07:28:35;;;;;;;0.63;0.10;;;;;;;6.12;70.38;96158.88;6254742;28;20234;-72
2022/01/05 07:31:37;;;;;;;0.20;0.20;;;;;;;6.10;70.85;96152.94;6253208;28;20620;-73
2022/01/05 07:34:39;;;;;;;0.30;0.30;;;;;;;6.06;71.10;96160.25;6244806;28;20237;-71
2022/01/05 07:37:41;;;;;;;0.27;0.20;;;;;;;6.04;71.38;96167.41;6229482;28;20291;-72
2022/01/05 07:40:43;;;;;;;0.33;0.23;;;;;;;6.02;71.18;96176.34;6242679;28;20231;-72
2022/01/05 07:43:45;;;;;;;0.20;0.20;;;;;;;6.01;70.84;96178.13;6254151;28;20235;-73
2022/01/05 07:46:50;;;;;;;0.37;0.20;;;;;;;6.00;71.22;96192.19;6245388;28;20233;-73
2022/01/05 07:49:52;;;;;;;0.83;0.20;;;;;;;6.00;70.96;96209.69;6228226;28;20230;-72
2022/01/05 07:52:54;;;;;;;0.10;0.10;;;;;;;5.96;71.08;96205.69;6230369;28;20225;-71
2022/01/05 07:55:56;;;;;;;0.30;0.30;;;;;;;5.93;70.46;96210.22;6205519;28;20233;-72
2022/01/05 07:58:58;;;;;;;0.20;0.20;;;;;;;5.91;70.44;96213.91;6245596;28;20737;-71
2022/01/05 08:02:00;;;;;;;0.20;0.20;;;;;;;5.89;70.37;96210.59;6252962;28;20250;-73
2022/01/05 08:05:03;;;;;;;0.20;0.20;;;;;;;5.89;70.60;96210.59;6253699;28;20287;-72
2022/01/05 08:08:04;;;;;;;0.47;0.20;;;;;;;5.89;70.82;96202.75;6253604;28;20223;-72
2022/01/05 08:11:06;;;;;;;0.10;0.10;;;;;;;5.86;70.22;96211.66;6252001;28;20235;-72
2022/01/05 08:14:08;;;;;;;0.13;0.13;;;;;;;5.86;70.54;96231.78;6210577;28;1204553;-72
2022/01/05 08:17:10;;;;;;;0.20;0.20;;;;;;;5.85;70.80;96228.34;6237842;28;20239;-72
2022/01/05 08:20:12;;;;;;;0.20;0.20;;;;;;;5.87;70.85;96222.97;6252872;28;20227;-72
2022/01/05 08:23:19;;;;;;;0.30;0.20;;;;;;;5.80;70.55;96246.19;6255186;28;20250;-73
2022/01/05 08:26:22;;;;;;;0.30;0.30;;;;;;;5.74;70.91;96246.72;6252984;28;20232;-72
2022/01/05 08:29:24;;;;;;;0.20;0.20;;;;;;;5.70;70.69;96244.50;6254410;28;20234;-72
2022/01/05 08:32:26;;;;;;;0.40;0.30;;;;;;;5.67;71.22;96231.69;6253069;28;20234;-73
2022/01/05 08:35:28;;;;;;;0.20;0.20;;;;;;;5.65;71.11;96260.59;6235726;28;20224;-73
2022/01/05 08:38:32;;;;;;;0.30;0.30;;;;;;;5.67;70.87;96256.06;6236505;28;20308;-72
2022/01/05 08:41:34;;;;;;;0.40;0.40;;;;;;;5.66;70.99;96266.66;6254618;28;20230;-73
2022/01/05 08:44:36;;;;;;;0.20;0.20;;;;;;;5.65;71.46;96251.91;6253581;28;20281;-73
2022/01/05 08:47:39;;;;;;;0.30;0.30;;;;;;;5.59;70.92;96279.41;6231949;28;20822;-73
2022/01/05 08:50:42;;;;;;;0.40;0.30;;;;;;;5.61;71.44;96253.94;6229764;28;20322;-72
2022/01/05 08:53:44;;;;;;;0.30;0.30;;;;;;;5.62;71.01;96247.75;6248562;28;20237;-73
2022/01/05 08:56:47;;;;;;;0.40;0.40;;;;;;;5.60;71.52;96243.59;6252683;28;20697;-72
2022/01/05 08:59:51;;;;;;;0.40;0.40;;;;;;;5.55;71.79;96239.59;6252102;28;20244;-73
2022/01/05 09:02:54;;;;;;;0.50;0.30;;;;;;;5.54;72.91;96268.50;6251354;28;20230;-73
2022/01/05 09:05:57;;;;;;;0.30;0.30;;;;;;;5.53;73.23;96279.91;6253438;28;20249;-72
2022/01/05 09:08:59;;;;;;;0.40;0.30;;;;;;;5.46;73.31;96276.16;6252144;28;20742;-73
2022/01/05 09:12:01;;;;;;;2.30;0.40;;;;;;;5.38;73.82;96276.78;6252321;28;20254;-72
2022/01/05 09:15:04;;;;;;;0.20;0.20;;;;;;;5.35;74.42;96299.75;6253580;28;20626;-73
2022/01/05 09:18:06;;;;;;;0.30;0.30;;;;;;;5.30;75.17;96301.88;6243060;28;20245;-73
2022/01/05 09:21:08;;;;;;;0.43;0.43;;;;;;;5.24;75.64;96302.41;6252759;28;20220;-72
2022/01/05 09:24:15;;;;;;;0.67;0.40;;;;;;;5.15;76.24;96285.66;6252870;28;20329;-74
2022/01/05 09:27:18;;;;;;;0.30;0.30;;;;;;;5.09;76.66;96297.44;6253196;28;20246;-73
2022/01/05 09:30:22;;;;;;;0.33;0.30;;;;;;;5.09;76.34;96300.06;6251551;28;20242;-72
2022/01/05 09:33:24;;;;;;;0.23;0.23;;;;;;;5.15;75.97;96298.75;6252241;28;20317;-72
2022/01/05 09:36:37;;;;;;;0.27;0.27;;;;;;;5.21;76.69;96290.41;6228130;28;20283;-72
2022/01/05 09:43:04;;;;;;;0.20;0.20;;;;;;;5.18;76.88;96303.75;6203640;28;20244;-72
2022/01/05 09:46:19;;;;;;;1.13;0.20;;;;;;;5.16;76.22;96298.63;6212972;28;20238;-72
2022/01/05 09:49:37;;;;;;;0.37;0.20;;;;;;;5.13;76.73;96314.56;6230445;28;20228;-72
2022/01/05 09:52:42;;;;;;;0.10;0.10;;;;;;;5.15;75.88;96312.66;6226989;28;20222;-72
2022/01/05 09:55:47;;;;;;;0.10;0.10;;;;;;;5.27;75.13;96307.38;6246007;28;20569;-72
2022/01/05 09:58:49;;;;;;;0.10;0.10;;;;;;;5.33;74.84;96302.47;6251244;28;20238;-72
2022/01/05 10:01:51;;;;;;;0.10;0.10;;;;;;;5.42;75.54;96303.50;6252481;28;20237;-71
2022/01/05 10:04:54;;;;;;;0.10;0.10;;;;;;;5.39;75.57;96303.78;6251034;28;20274;-72
2022/01/05 10:07:57;;;;;;;0.07;0.07;;;;;;;5.41;74.63;96297.44;6252956;28;20234;-71
2022/01/05 10:10:59;;;;;;;0.53;0.03;;;;;;;5.39;73.76;96301.97;6250540;28;20258;-72
2022/01/05 10:14:01;;;;;;;0.30;0.10;;;;;;;5.42;74.23;96296.50;6252453;28;20628;-72
2022/01/05 10:17:09;;;;;;;0.00;0.00;;;;;;;5.51;73.78;96284.44;6236482;28;20630;-72
2022/01/05 10:20:12;;;;;;;0.00;0.00;;;;;;;5.51;73.38;96284.44;6249436;28;20837;-72
2022/01/05 10:23:33;;;;;;;0.10;0.10;;;;;;;5.52;72.19;96288.72;6252138;28;20272;-72
2022/01/05 10:26:39;;;;;;;0.00;0.00;;;;;;;5.60;72.90;96293.31;6252204;28;20778;-72
2022/01/05 10:29:54;;;;;;;0.00;0.00;;;;;;;5.56;72.34;96275.28;6251984;28;20695;-72
2022/01/05 10:32:56;;;;;;;0.00;0.00;;;;;;;5.59;72.08;96289.06;6252436;28;20239;-71
2022/01/05 10:35:58;;;;;;;0.07;0.07;;;;;;;5.59;72.58;96281.22;6230222;28;20235;-72
2022/01/05 10:39:00;;;;;;;0.00;0.00;;;;;;;5.58;72.99;96269.91;6236133;28;20235;-71
2022/01/05 10:42:07;;;;;;;0.10;0.10;;;;;;;5.61;72.16;96277.50;6251559;28;20242;-73
2022/01/05 10:45:13;;;;;;;0.10;0.10;;;;;;;5.66;71.89;96272.72;6250770;28;20234;-71
2022/01/05 10:48:18;;;;;;;0.40;0.10;;;;;;;5.70;71.03;96278.50;6227691;28;20253;-72
2022/01/05 10:51:29;;;;;;;0.10;0.10;;;;;;;5.75;70.85;96260.66;6226827;28;20244;-72
2022/01/05 10:54:32;;;;;;;0.10;0.00;;;;;;;5.72;69.96;96251.25;6249076;28;20227;-73
2022/01/05 10:57:34;;;;;;;0.10;0.10;;;;;;;5.73;70.23;96260.78;6252072;28;20323;-72
2022/01/05 11:00:40;;;;;;;0.10;0.10;;;;;;;5.74;69.10;96266.84;6252441;28;20231;-71
2022/01/05 11:03:43;;;;;;;0.20;0.10;;;;;;;5.73;70.01;96288.72;6252350;28;20234;-72
2022/01/05 11:06:55;;;;;;;0.10;0.10;;;;;;;5.74;69.43;96288.63;6253473;28;20219;-73
2022/01/05 11:10:08;;;;;;;0.00;0.00;;;;;;;5.75;69.97;96294.69;6255826;28;20711;-72
2022/01/05 11:13:10;;;;;;;0.30;0.10;;;;;;;5.74;69.33;96279.94;6255721;28;20576;-73
2022/01/05 11:16:24;;;;;;;0.03;0.03;;;;;;;5.71;70.06;96291.47;6246182;28;20227;-72
2022/01/05 11:19:31;;;;;;;0.00;0.00;;;;;;;5.66;69.96;96292.81;6256029;28;20715;-72
2022/01/05 11:22:33;;;;;;;0.10;0.10;;;;;;;5.63;69.56;96306.16;6255926;28;20255;-72
2022/01/05 11:25:39;;;;;;;0.10;0.10;;;;;;;5.67;69.83;96315.44;6255967;28;20723;-72
2022/01/05 11:28:41;;;;;;;0.03;0.03;;;;;;;5.66;70.10;96321.63;6255410;28;20690;-72
2022/01/05 11:31:46;;;;;;;0.20;0.20;;;;;;;5.61;69.02;96316.75;6256778;28;20242;-72
2022/01/05 11:34:50;;;;;;;0.00;0.00;;;;;;;5.60;69.31;96307.22;6243933;28;20238;-73
2022/01/05 11:37:52;;;;;;;0.10;0.10;;;;;;;5.54;69.26;96294.66;6239871;28;20269;-72
2022/01/05 11:40:55;;;;;;;0.10;0.10;;;;;;;5.50;69.06;96301.94;6255780;28;20666;-73
2022/01/05 11:43:59;;;;;;;0.00;0.00;;;;;;;5.46;70.45;96305.78;6254163;28;20312;-71
2022/01/05 11:47:17;;;;;;;0.10;0.10;;;;;;;5.48;70.74;96318.72;6238745;28;20236;-72
2022/01/05 11:50:24;;;;;;;0.10;0.10;;;;;;;5.50;70.14;96315.00;6205286;28;20225;-72
2022/01/05 11:53:35;;;;;;;0.10;0.10;;;;;;;5.49;70.35;96315.16;6252215;28;20230;-72
2022/01/05 11:56:47;;;;;;;0.20;0.20;;;;;;;5.41;71.25;96328.84;6255221;28;20265;-72
2022/01/05 11:59:49;;;;;;;0.10;0.10;;;;;;;5.32;71.13;96324.34;6255167;28;20239;-73
2022/01/05 12:02:51;;;;;;;0.17;0.13;;;;;;;5.36;71.58;96327.56;6254552;28;20236;-72
2022/01/05 12:06:04;;;;;;;0.30;0.20;;;;;;;5.38;70.49;96326.50;6253288;28;20319;-72
2022/01/05 12:09:23;;;;;;;0.10;0.10;;;;;;;5.38;70.14;96330.91;6254819;28;20227;-72
2022/01/05 12:12:32;;;;;;;0.20;0.20;;;;;;;5.37;69.68;96326.63;6256332;28;20234;-72
2022/01/05 12:15:54;;;;;;;0.20;0.20;;;;;;;5.37;70.33;96329.22;6248815;28;20706;-73
2022/01/05 12:19:08;;;;;;;0.20;0.20;;;;;;;5.33;71.55;96340.88;6236150;28;20321;-73
2022/01/05 12:22:19;;;;;;;0.10;0.10;;;;;;;5.36;70.71;96345.88;6253137;28;20227;-72
2022/01/05 12:25:21;;;;;;;0.23;0.23;;;;;;;5.32;70.77;96344.44;6254263;28;20228;-73
2022/01/05 12:28:28;;;;;;;0.30;0.30;;;;;;;5.32;70.64;96337.44;6253858;28;20243;-73
2022/01/05 12:31:53;;;;;;;0.20;0.20;;;;;;;5.31;71.29;96340.16;6253841;28;20242;-73
2022/01/05 12:35:17;;;;;;;0.30;0.30;;;;;;;5.30;71.55;96326.25;6240679;28;20242;-72
2022/01/05 12:38:37;;;;;;;0.30;0.30;;;;;;;5.25;71.38;96335.44;6205245;28;20588;-72
2022/01/05 12:41:45;;;;;;;0.30;0.30;;;;;;;5.23;70.50;96325.09;6253398;28;20235;-72
2022/01/05 12:44:47;;;;;;;0.20;0.20;;;;;;;5.23;70.93;96355.66;6259177;28;20242;-72
2022/01/05 12:47:49;;;;;;;0.60;0.30;;;;;;;5.26;71.63;96347.56;6240916;28;20231;-72
2022/01/05 12:50:51;;;;;;;0.80;0.30;;;;;;;5.26;71.07;96361.47;6229307;28;20254;-72
2022/01/05 12:53:55;;;;;;;0.40;0.40;;;;;;;5.29;71.21;96381.34;6239738;28;20233;-72
2022/01/05 12:57:02;;;;;;;0.30;0.30;;;;;;;5.28;71.28;96363.97;6254029;28;20655;-73
2022/01/05 13:00:04;;;;;;;0.30;0.30;;;;;;;5.25;71.13;96359.00;6235544;28;20219;-73
2022/01/05 13:03:07;;;;;;;0.40;0.40;;;;;;;5.22;71.84;96365.28;6252872;28;20261;-72
2022/01/05 13:06:19;;;;;;;0.30;0.30;;;;;;;5.17;71.27;96347.38;6253592;28;20216;-73
2022/01/05 13:09:26;;;;;;;0.50;0.37;;;;;;;5.09;71.35;96372.47;6254050;28;20230;-73
2022/01/05 13:12:30;;;;;;;0.20;0.20;;;;;;;5.09;71.78;96354.97;6253629;28;20726;-73
2022/01/05 13:15:32;;;;;;;0.40;0.40;;;;;;;5.06;71.12;96357.84;6248723;28;20722;-73
2022/01/05 13:18:34;;;;;;;0.30;0.30;;;;;;;5.06;70.96;96363.06;6244336;28;20234;-73
2022/01/05 13:21:48;;;;;;;0.30;0.30;;;;;;;5.07;71.16;96374.38;6252362;28;20244;-72
2022/01/05 13:25:10;;;;;;;0.33;0.33;;;;;;;5.06;69.96;96359.63;6252708;28;20227;-73
2022/01/05 13:28:12;;;;;;;0.30;0.30;;;;;;;5.06;70.83;96363.06;6252343;28;20707;-73
2022/01/05 13:31:14;;;;;;;0.53;0.30;;;;;;;5.10;70.82;96382.78;6253101;28;20565;-73
2022/01/05 13:34:15;;;;;;;0.83;0.40;;;;;;;5.12;70.84;96393.13;6244768;28;20230;-73
2022/01/05 13:37:39;;;;;;;0.30;0.30;;;;;;;5.11;70.05;96394.06;6228274;28;20243;-73
2022/01/05 13:40:44;;;;;;;0.50;0.50;;;;;;;5.08;70.16;96410.84;6227364;28;20758;-72
2022/01/05 13:43:46;;;;;;;0.30;0.30;;;;;;;5.10;70.16;96426.41;6252597;28;20230;-73
2022/01/05 13:46:48;;;;;;;0.30;0.30;;;;;;;5.08;69.61;96413.47;6237707;28;20251;-73
2022/01/05 13:50:05;;;;;;;0.30;0.30;;;;;;;5.11;69.72;96402.75;6227409;28;20573;-73
2022/01/05 13:53:20;;;;;;;0.33;0.20;;;;;;;5.11;70.98;96396.69;6244060;28;20243;-71
2022/01/05 13:56:23;;;;;;;0.40;0.30;;;;;;;5.11;69.90;96405.38;6251336;28;20711;-73
2022/01/05 13:59:43;;;;;;;0.20;0.20;;;;;;;5.09;69.86;96401.22;6251633;28;20238;-73
2022/01/05 14:02:45;;;;;;;0.43;0.30;;;;;;;5.08;70.32;96394.34;6251267;28;20227;-71
2022/01/05 14:05:47;;;;;;;0.20;0.20;;;;;;;5.09;69.92;96396.81;6252006;28;20593;-72
2022/01/05 14:08:54;;;;;;;0.20;0.20;;;;;;;5.10;69.40;96406.31;6251808;28;20223;-72
2022/01/05 14:12:00;;;;;;;0.20;0.20;;;;;;;5.10;70.71;96416.78;6252395;28;20228;-73
2022/01/05 14:15:06;;;;;;;0.20;0.20;;;;;;;5.10;70.14;96426.41;6252293;28;20257;-73
2022/01/05 14:18:14;;;;;;;0.20;0.20;;;;;;;5.08;69.13;96421.31;6250957;28;20613;-72
2022/01/05 14:21:27;;;;;;;0.20;0.20;;;;;;;5.06;69.18;96435.44;6249746;28;20249;-72
2022/01/05 14:24:32;;;;;;;0.30;0.30;;;;;;;5.06;68.99;96444.13;6250799;28;20226;-73
2022/01/05 14:27:43;;;;;;;0.30;0.30;;;;;;;5.05;68.34;96455.53;6250931;28;20563;-72
2022/01/05 14:30:50;;;;;;;0.37;0.37;;;;;;;4.99;68.81;96457.81;6251141;28;20314;-73
2022/01/05 14:33:53;;;;;;;0.40;0.40;;;;;;;4.95;68.51;96464.22;6253476;28;20227;-73
2022/01/05 14:37:07;;;;;;;0.40;0.40;;;;;;;4.93;69.04;96448.63;6229827;28;20232;-72
2022/01/05 14:40:22;;;;;;;0.30;0.30;;;;;;;4.87;69.34;96461.34;6233862;28;20761;-73